createdAt,value
2022-11-22T00:00:20.082Z,51.00
2022-11-22T00:03:09.531Z,55.13
2022-11-22T00:05:38.842Z,47.30
2022-11-22T00:08:08.513Z,46.53
2022-11-22T00:10:39.261Z,49.67
2022-11-22T00:13:08.376Z,47.28
2022-11-22T00:15:37.928Z,43.13
2022-11-22T00:18:07.123Z,42.63
2022-11-22T00:20:37.273Z,39.67
2022-11-22T00:23:06.408Z,44.13
2022-11-22T00:25:35.798Z,41.53
2022-11-22T00:28:06.427Z,42.38
2022-11-22T00:30:35.883Z,46.20
2022-11-22T00:33:05.099Z,43.97
2022-11-22T00:35:34.514Z,49.92
2022-11-22T00:38:03.521Z,46.42
2022-11-22T00:40:32.856Z,44.35
2022-11-22T00:43:01.933Z,41.83
2022-11-22T00:45:32.724Z,44.40
2022-11-22T00:48:01.947Z,42.08
2022-11-22T00:50:31.492Z,43.03
2022-11-22T00:53:00.626Z,40.70
2022-11-22T00:55:29.953Z,42.85
2022-11-22T00:57:59.110Z,43.50
2022-11-22T01:00:28.619Z,39.70
2022-11-22T01:02:59.106Z,44.30
2022-11-22T01:05:28.696Z,42.67
2022-11-22T01:07:57.824Z,41.67
2022-11-22T01:10:27.157Z,41.80
2022-11-22T01:12:58.045Z,42.45
2022-11-22T01:15:27.504Z,40.17
2022-11-22T01:17:56.514Z,42.70
2022-11-22T01:20:27.407Z,40.00
2022-11-22T01:22:56.467Z,41.28
2022-11-22T01:25:25.957Z,38.10
2022-11-22T01:27:55.259Z,43.85
2022-11-22T01:30:24.692Z,40.40
2022-11-22T01:32:53.762Z,43.13
2022-11-22T01:35:23.478Z,41.47
2022-11-22T01:37:53.862Z,39.25
2022-11-22T01:40:23.458Z,38.60
2022-11-22T01:42:54.532Z,36.97
2022-11-22T01:45:46.047Z,37.75
2022-11-22T01:48:24.988Z,39.60
2022-11-22T01:50:59.168Z,38.42
2022-11-22T01:53:33.673Z,37.63
2022-11-22T01:56:06.810Z,38.00
2022-11-22T01:58:38.447Z,38.50
2022-11-22T02:01:08.858Z,35.78
2022-11-22T02:03:40.713Z,39.47
2022-11-22T02:06:10.399Z,41.22
2022-11-22T02:08:48.414Z,42.20
2022-11-22T02:11:19.210Z,40.20
2022-11-22T02:13:48.875Z,39.63
2022-11-22T02:16:18.286Z,38.58
2022-11-22T02:18:47.399Z,39.63
2022-11-22T02:21:16.737Z,40.78
2022-11-22T02:24:00.818Z,43.50
2022-11-22T02:26:32.536Z,37.28
2022-11-22T02:29:07.853Z,37.22
2022-11-22T02:31:42.538Z,41.58
2022-11-22T02:34:12.736Z,39.28
2022-11-22T02:36:46.999Z,39.72
2022-11-22T02:39:19.481Z,42.20
2022-11-22T02:41:51.560Z,39.25
2022-11-22T02:44:21.875Z,37.85
2022-11-22T02:46:53.998Z,42.28
2022-11-22T02:49:26.200Z,37.50
2022-11-22T02:51:55.591Z,39.97
2022-11-22T02:54:24.673Z,39.13
2022-11-22T02:56:55.425Z,41.00
2022-11-22T02:59:24.455Z,37.28
2022-11-22T03:01:55.608Z,38.17
2022-11-22T03:04:27.777Z,36.85
2022-11-22T03:06:58.706Z,38.38
2022-11-22T03:09:29.187Z,36.88
2022-11-22T03:12:00.291Z,36.63
2022-11-22T03:14:29.382Z,39.58
2022-11-22T03:16:58.745Z,37.03
2022-11-22T03:19:28.111Z,39.03
2022-11-22T03:21:57.634Z,39.97
2022-11-22T03:24:26.902Z,37.35
2022-11-22T03:26:56.375Z,38.90
2022-11-22T03:29:27.060Z,39.50
2022-11-22T03:36:42.748Z,39.47
2022-11-22T03:39:11.889Z,38.63
2022-11-22T03:41:41.364Z,38.38
2022-11-22T03:44:10.563Z,38.75
2022-11-22T03:46:41.330Z,41.15
2022-11-22T03:49:11.959Z,38.78
2022-11-22T03:51:41.394Z,41.97
2022-11-22T03:54:10.596Z,37.72
2022-11-22T03:56:40.108Z,43.72
2022-11-22T03:59:09.200Z,40.55
2022-11-22T04:01:38.625Z,39.45
2022-11-22T04:04:09.126Z,37.60
2022-11-22T04:06:42.898Z,39.70
2022-11-22T04:09:12.297Z,39.38
2022-11-22T04:11:41.655Z,42.05
2022-11-22T04:14:30.547Z,39.72
2022-11-22T04:17:00.027Z,39.55
2022-11-22T04:19:30.697Z,40.70
2022-11-22T04:21:59.115Z,39.63
2022-11-22T04:24:45.248Z,40.13
2022-11-22T04:27:14.667Z,39.85
2022-11-22T04:29:43.747Z,39.63
2022-11-22T04:32:30.994Z,39.15
2022-11-22T04:35:01.455Z,38.15
2022-11-22T04:37:30.803Z,39.47
2022-11-22T04:39:59.794Z,41.33
2022-11-22T04:42:46.676Z,41.38
2022-11-22T04:45:15.689Z,36.75
2022-11-22T04:48:00.454Z,41.42
2022-11-22T04:50:49.192Z,39.65
2022-11-22T04:53:19.974Z,40.83
2022-11-22T04:55:49.581Z,52.83
2022-11-22T04:58:19.073Z,46.88
2022-11-22T05:00:48.545Z,39.60
2022-11-22T05:03:18.406Z,40.55
2022-11-22T05:05:48.812Z,39.15
2022-11-22T05:08:18.420Z,43.03
2022-11-22T05:10:57.956Z,39.30
2022-11-22T05:13:30.123Z,42.50
2022-11-22T05:16:00.443Z,41.10
2022-11-22T05:18:31.547Z,43.15
2022-11-22T05:21:06.319Z,41.45
2022-11-22T05:23:53.217Z,40.42
2022-11-22T05:26:25.719Z,41.20
2022-11-22T05:28:56.910Z,38.35
2022-11-22T05:31:27.932Z,41.97
2022-11-22T05:33:58.623Z,38.97
2022-11-22T05:36:29.143Z,39.30
2022-11-22T05:38:58.613Z,39.45
2022-11-22T05:41:27.735Z,40.72
2022-11-22T05:43:57.426Z,39.67
2022-11-22T05:46:28.714Z,42.35
2022-11-22T05:48:59.651Z,38.78
2022-11-22T05:51:34.653Z,40.78
2022-11-22T05:56:33.625Z,38.25
2022-11-22T05:59:03.118Z,41.90
2022-11-22T06:01:32.136Z,42.40
2022-11-22T06:04:02.853Z,38.17
2022-11-22T06:06:33.556Z,40.28
2022-11-22T06:09:02.885Z,39.05
2022-11-22T06:11:31.973Z,42.00
2022-11-22T06:14:03.518Z,41.47
2022-11-22T06:16:32.896Z,43.25
2022-11-22T06:19:02.351Z,41.00
2022-11-22T06:21:32.874Z,42.00
2022-11-22T06:24:02.257Z,43.28
2022-11-22T06:26:36.104Z,42.55
2022-11-22T06:29:08.620Z,44.17
2022-11-22T06:34:15.247Z,47.78
2022-11-22T06:36:45.007Z,43.58
2022-11-22T06:39:14.608Z,46.35
2022-11-22T06:41:44.184Z,48.33
2022-11-22T06:44:13.224Z,51.03
2022-11-22T06:46:42.622Z,42.33
2022-11-22T06:49:11.897Z,40.17
2022-11-22T06:51:42.617Z,40.78
2022-11-22T06:54:12.664Z,40.13
2022-11-22T06:56:42.695Z,37.55
2022-11-22T06:59:12.068Z,38.47
2022-11-22T07:01:41.557Z,40.25
2022-11-22T07:04:11.248Z,43.80
2022-11-22T07:06:44.201Z,42.92
2022-11-22T07:09:13.617Z,39.13
2022-11-22T07:11:43.174Z,41.15
2022-11-22T07:14:12.296Z,43.22
2022-11-22T07:16:41.671Z,44.63
2022-11-22T07:19:11.110Z,43.92
2022-11-22T07:21:42.084Z,40.05
2022-11-22T07:24:11.224Z,40.83
2022-11-22T07:26:40.732Z,41.10
2022-11-22T07:29:09.998Z,40.38
2022-11-22T07:31:39.368Z,39.92
2022-11-22T07:34:08.482Z,37.70
2022-11-22T07:36:37.895Z,39.25
2022-11-22T07:39:08.450Z,40.03
2022-11-22T07:41:37.784Z,39.33
2022-11-22T07:44:06.971Z,41.47
2022-11-22T07:46:36.392Z,43.05
2022-11-22T07:49:05.438Z,41.95
2022-11-22T07:51:34.687Z,39.15
2022-11-22T07:54:03.832Z,40.13
2022-11-22T07:56:35.525Z,35.92
2022-11-22T07:59:04.790Z,40.45
2022-11-22T08:01:34.194Z,42.13
2022-11-22T08:04:03.313Z,39.03
2022-11-22T08:06:32.732Z,36.55
2022-11-22T08:09:02.427Z,38.35
2022-11-22T08:11:33.284Z,45.85
2022-11-22T08:14:02.335Z,40.45
2022-11-22T08:16:31.847Z,40.17
2022-11-22T08:19:00.981Z,41.92
2022-11-22T08:21:30.334Z,45.58
2022-11-22T08:24:00.359Z,40.92
2022-11-22T17:00:43.142Z,27.15
2022-11-22T17:03:19.570Z,27.67
2022-11-22T17:05:49.519Z,27.48
2022-11-22T17:08:20.803Z,28.58
2022-11-22T17:10:51.889Z,28.65
2022-11-22T17:13:25.483Z,32.25
2022-11-22T17:15:57.278Z,27.55
2022-11-22T17:47:59.174Z,27.00
2022-11-22T17:50:28.683Z,24.33
2022-11-22T17:52:57.904Z,25.42
2022-11-22T17:55:42.702Z,23.00
2022-11-22T17:58:16.642Z,23.33
2022-11-22T18:00:45.973Z,27.10
2022-11-22T18:03:16.408Z,27.42
2022-11-22T18:05:45.756Z,28.35
2022-11-22T18:08:14.862Z,23.23
2022-11-22T18:10:44.277Z,27.20
2022-11-22T18:13:22.325Z,24.42
2022-11-22T18:16:00.090Z,27.10
2022-11-22T18:18:55.644Z,26.48
2022-11-22T18:21:24.438Z,25.05
2022-11-22T18:23:53.989Z,28.10
2022-11-22T18:26:38.751Z,28.08
2022-11-22T18:29:39.026Z,31.73
2022-11-22T18:31:59.250Z,38.65
2022-11-22T18:34:30.627Z,29.27
2022-11-22T18:37:03.554Z,29.10
2022-11-22T18:39:36.556Z,32.05
2022-11-22T18:42:07.916Z,30.75
2022-11-22T18:44:37.050Z,30.58
2022-11-22T18:47:06.515Z,25.80
2022-11-22T18:49:37.565Z,28.38
2022-11-22T18:52:08.785Z,25.95
2022-11-22T18:54:39.909Z,30.75
2022-11-22T18:57:09.234Z,24.25
2022-11-22T18:59:38.342Z,22.17
2022-11-22T19:02:08.909Z,22.35
2022-11-22T19:04:39.485Z,22.38
2022-11-22T19:07:09.140Z,24.10
2022-11-22T19:09:38.210Z,26.73
2022-11-22T19:12:07.937Z,24.02
2022-11-22T19:14:37.221Z,25.45
2022-11-22T19:17:09.034Z,23.83
2022-11-22T19:19:39.492Z,25.88
2022-11-22T19:22:08.819Z,24.65
2022-11-22T19:24:37.882Z,28.70
2022-11-22T19:27:07.353Z,25.38
2022-11-22T19:29:36.685Z,26.80
2022-11-22T19:32:06.432Z,24.52
2022-11-22T19:34:35.603Z,23.95
2022-11-22T19:37:06.833Z,22.85
2022-11-22T19:39:36.250Z,25.90
2022-11-22T19:42:05.875Z,23.38
2022-11-22T19:44:37.936Z,24.65
2022-11-22T19:47:07.554Z,29.00
2022-11-22T19:49:36.586Z,24.65
2022-11-22T19:52:07.477Z,25.80
2022-11-22T19:54:36.563Z,21.92
2022-11-22T19:57:06.067Z,22.52
2022-11-22T19:59:36.061Z,21.60
2022-11-22T20:02:05.697Z,23.70
2022-11-22T20:04:34.823Z,24.27
2022-11-22T20:07:04.809Z,23.35
2022-11-22T20:09:38.116Z,24.23
2022-11-22T20:12:07.599Z,24.20
2022-11-22T20:14:36.697Z,24.33
2022-11-22T20:17:06.071Z,28.77
2022-11-22T20:19:35.404Z,29.88
2022-11-22T20:22:04.860Z,25.38
2022-11-22T20:24:35.411Z,26.52
2022-11-22T20:27:05.340Z,23.08
2022-11-22T20:29:34.440Z,24.50
2022-11-22T20:32:03.852Z,22.75
2022-11-22T20:34:34.192Z,23.20
2022-11-22T20:37:03.884Z,20.77
2022-11-22T20:39:36.454Z,20.95
2022-11-22T20:42:33.017Z,18.88
2022-11-22T20:44:55.312Z,27.02
2022-11-22T20:47:24.730Z,22.17
2022-11-22T20:49:53.830Z,21.20
2022-11-22T20:52:23.297Z,21.98
2022-11-22T20:54:53.969Z,23.38
2022-11-22T20:57:23.579Z,24.73
2022-11-22T20:59:52.671Z,25.05
2022-11-22T21:02:22.005Z,22.85
2022-11-22T21:04:51.188Z,24.90
2022-11-22T21:07:20.540Z,21.92
2022-11-22T21:09:49.797Z,26.25
2022-11-22T21:12:20.475Z,21.88
2022-11-22T21:14:53.596Z,27.35
2022-11-22T21:17:45.595Z,32.05
2022-11-22T21:20:13.498Z,28.67
2022-11-22T21:22:43.084Z,27.52
2022-11-22T21:25:12.385Z,26.42
2022-11-22T21:27:43.258Z,23.33
2022-11-22T21:30:13.443Z,28.27
2022-11-22T21:32:42.950Z,25.00
2022-11-22T21:35:12.772Z,25.80
2022-11-22T21:37:42.615Z,23.75
2022-11-22T21:40:13.132Z,23.67
2022-11-22T21:42:44.678Z,26.00
2022-11-22T21:45:13.806Z,22.55
2022-11-22T21:47:43.221Z,23.75
2022-11-22T21:50:13.149Z,21.15
2022-11-22T21:52:43.430Z,22.90
2022-11-22T21:55:13.125Z,20.73
2022-11-22T21:57:43.936Z,22.58
2022-11-22T22:00:14.473Z,21.77
2022-11-22T22:02:43.956Z,23.73
2022-11-22T22:05:13.682Z,22.63
2022-11-22T22:07:52.481Z,19.88
2022-11-22T22:10:22.381Z,20.08
2022-11-22T22:12:53.960Z,21.27
2022-11-22T22:15:23.075Z,20.23
2022-11-22T22:17:54.661Z,20.35
2022-11-22T22:20:24.157Z,20.58
2022-11-22T22:22:54.807Z,17.80
2022-11-22T22:25:24.145Z,19.08
2022-11-22T22:27:57.096Z,20.00
2022-11-22T22:30:26.433Z,20.35
2022-11-22T22:32:55.822Z,25.15
2022-11-22T22:35:24.934Z,20.70
2022-11-22T22:37:54.389Z,23.40
2022-11-22T22:40:23.653Z,22.20
2022-11-22T22:42:54.475Z,22.63
2022-11-22T22:45:23.675Z,23.33
2022-11-22T22:47:53.152Z,24.83
2022-11-22T22:50:22.230Z,24.13
2022-11-22T22:52:51.737Z,25.10
2022-11-22T22:55:20.896Z,25.77
2022-11-22T22:57:50.276Z,24.25
2022-11-22T23:00:22.159Z,26.73
2022-11-22T23:02:51.573Z,23.55
2022-11-22T23:05:21.106Z,24.70
2022-11-22T23:07:50.510Z,22.08
2022-11-22T23:10:19.688Z,23.38
2022-11-22T23:12:49.048Z,23.45
2022-11-22T23:15:28.451Z,21.85
2022-11-22T23:18:09.125Z,24.17
2022-11-22T23:20:38.192Z,20.52
2022-11-22T23:23:07.645Z,22.20
2022-11-22T23:25:36.734Z,20.83
2022-11-22T23:28:06.234Z,21.30
2022-11-22T23:30:35.356Z,19.95
2022-11-22T23:33:04.959Z,19.85
2022-11-22T23:35:37.805Z,20.73
2022-11-22T23:38:07.113Z,20.88
2022-11-22T23:40:36.253Z,20.63
2022-11-22T23:43:05.727Z,19.08
2022-11-22T23:45:34.844Z,19.88
2022-11-22T23:48:04.316Z,23.40
2022-11-22T23:50:37.501Z,21.02
2022-11-22T23:53:07.039Z,19.55
2022-11-22T23:55:36.346Z,23.85
2022-11-22T23:58:05.863Z,19.35
